createdAt,value
2022-10-13T00:01:25.762Z,11.00
2022-10-13T00:03:55.226Z,11.00
2022-10-13T00:06:26.525Z,11.00
2022-10-13T00:08:56.780Z,11.00
2022-10-13T00:11:27.584Z,11.00
2022-10-13T00:13:58.092Z,10.90
2022-10-13T00:16:28.732Z,10.80
2022-10-13T00:18:58.643Z,10.70
2022-10-13T00:21:28.901Z,10.70
2022-10-13T00:23:58.785Z,10.70
2022-10-13T00:26:28.073Z,10.70
2022-10-13T00:28:56.773Z,10.70
2022-10-13T00:31:28.544Z,10.60
2022-10-13T00:33:58.735Z,10.50
2022-10-13T00:36:27.230Z,10.40
2022-10-13T00:38:56.272Z,10.40
2022-10-13T00:41:26.284Z,10.40
2022-10-13T00:43:58.939Z,10.30
2022-10-13T00:46:29.614Z,10.30
2022-10-13T00:49:01.718Z,10.40
2022-10-13T00:51:34.358Z,10.40
2022-10-13T00:54:04.632Z,10.50
2022-10-13T00:56:36.083Z,10.50
2022-10-13T00:59:07.481Z,10.60
2022-10-13T01:01:38.211Z,10.70
2022-10-13T01:04:06.571Z,10.80
2022-10-13T01:06:35.834Z,10.90
2022-10-13T01:09:04.289Z,10.90
2022-10-13T01:11:47.504Z,10.90
2022-10-13T01:14:26.250Z,10.90
2022-10-13T01:17:05.437Z,11.00
2022-10-13T01:20:03.127Z,11.00
2022-10-13T01:22:46.318Z,11.10
2022-10-13T01:25:45.862Z,11.10
2022-10-13T01:28:33.969Z,11.10
2022-10-13T01:31:11.054Z,11.00
2022-10-13T01:33:45.597Z,11.00
2022-10-13T01:36:25.469Z,10.90
2022-10-13T01:39:00.941Z,10.90
2022-10-13T01:41:37.540Z,10.90
2022-10-13T01:44:13.397Z,10.90
2022-10-13T01:46:47.282Z,10.90
2022-10-13T01:49:19.360Z,10.90
2022-10-13T01:51:49.865Z,10.90
2022-10-13T01:54:18.300Z,11.00
2022-10-13T01:56:53.569Z,11.00
2022-10-13T01:59:23.630Z,11.00
2022-10-13T02:02:03.279Z,11.10
2022-10-13T02:04:46.712Z,11.10
2022-10-13T02:07:21.992Z,11.10
2022-10-13T02:09:58.906Z,11.10
2022-10-13T02:12:32.261Z,11.10
2022-10-13T02:15:02.658Z,11.10
2022-10-13T02:17:34.759Z,11.10
2022-10-13T02:20:07.369Z,11.10
2022-10-13T02:22:42.953Z,10.90
2022-10-13T02:25:11.885Z,10.90
2022-10-13T02:27:40.402Z,10.70
2022-10-13T02:30:10.081Z,10.70
2022-10-13T02:32:41.273Z,10.70
2022-10-13T02:35:10.273Z,10.70
2022-10-13T02:37:38.678Z,10.70
2022-10-13T02:40:08.564Z,10.70
2022-10-13T02:42:36.836Z,10.70
2022-10-13T02:45:06.533Z,10.70
2022-10-13T02:47:34.725Z,10.70
2022-10-13T02:50:07.597Z,10.60
2022-10-13T02:52:36.134Z,10.60
2022-10-13T02:55:05.218Z,10.50
2022-10-13T02:57:33.843Z,10.50
2022-10-13T03:00:02.113Z,10.40
2022-10-13T03:02:31.022Z,10.40
2022-10-13T03:04:59.122Z,10.40
2022-10-13T03:07:29.203Z,10.40
2022-10-13T03:09:57.496Z,10.40
2022-10-13T03:12:26.253Z,10.40
2022-10-13T03:14:54.700Z,10.40
2022-10-13T03:17:23.206Z,10.50
2022-10-13T03:19:51.611Z,10.50
2022-10-13T03:22:21.473Z,10.40
2022-10-13T03:24:52.687Z,10.50
2022-10-13T03:27:21.493Z,10.50
2022-10-13T03:29:51.191Z,10.50
2022-10-13T03:32:19.819Z,10.50
2022-10-13T03:34:48.474Z,10.70
2022-10-13T03:37:17.156Z,10.90
2022-10-13T03:39:45.523Z,11.10
2022-10-13T03:42:17.303Z,11.10
2022-10-13T03:44:46.202Z,11.10
2022-10-13T03:47:14.619Z,11.10
2022-10-13T03:49:43.445Z,11.10
2022-10-13T03:52:11.638Z,11.00
2022-10-13T03:54:40.134Z,11.00
2022-10-13T03:57:10.161Z,11.00
2022-10-13T03:59:41.558Z,11.00
2022-10-13T04:02:10.367Z,11.00
2022-10-13T04:04:39.265Z,11.00
2022-10-13T04:07:08.893Z,11.00
2022-10-13T04:09:37.248Z,11.00
2022-10-13T04:12:06.185Z,11.00
2022-10-13T04:14:34.924Z,11.10
2022-10-13T04:17:10.827Z,11.10
2022-10-13T04:19:40.086Z,11.10
2022-10-13T04:22:09.323Z,11.20
2022-10-13T04:24:39.561Z,11.30
2022-10-13T04:27:08.015Z,11.20
2022-10-13T04:29:36.499Z,11.20
2022-10-13T04:32:05.000Z,11.30
2022-10-13T04:34:34.998Z,11.30
2022-10-13T04:37:03.551Z,11.30
2022-10-13T04:39:32.277Z,11.30
2022-10-13T04:42:00.607Z,11.30
2022-10-13T04:44:29.208Z,11.30
2022-10-13T04:46:57.652Z,11.30
2022-10-13T04:49:26.648Z,11.30
2022-10-13T04:51:56.230Z,11.30
2022-10-13T04:54:25.151Z,11.30
2022-10-13T04:56:53.390Z,11.30
2022-10-13T04:59:21.829Z,11.30
2022-10-13T05:01:50.377Z,11.30
2022-10-13T05:04:19.313Z,11.30
2022-10-13T05:07:15.956Z,11.30
2022-10-13T05:09:38.220Z,11.30
2022-10-13T05:12:12.408Z,11.40
2022-10-13T05:14:40.816Z,11.30
2022-10-13T05:17:09.138Z,11.30
2022-10-13T05:19:38.161Z,11.30
2022-10-13T05:22:06.330Z,11.30
2022-10-13T05:24:37.583Z,11.30
2022-10-13T05:27:10.596Z,11.30
2022-10-13T05:29:40.101Z,11.30
2022-10-13T05:32:08.940Z,11.30
2022-10-13T05:34:37.332Z,11.30
2022-10-13T05:37:06.161Z,11.30
2022-10-13T05:39:34.600Z,11.30
2022-10-13T05:42:03.586Z,11.30
2022-10-13T05:44:33.889Z,11.30
2022-10-13T05:47:07.363Z,11.30
2022-10-13T05:49:39.617Z,11.20
2022-10-13T05:52:11.550Z,11.20
2022-10-13T05:54:44.418Z,11.20
2022-10-13T05:57:17.526Z,11.20
2022-10-13T05:59:53.604Z,11.10
2022-10-13T06:02:27.443Z,11.10
2022-10-13T06:04:58.922Z,11.10
2022-10-13T06:07:27.823Z,11.10
2022-10-13T06:09:57.225Z,11.00
2022-10-13T06:12:25.586Z,11.00
2022-10-13T06:14:55.771Z,11.00
2022-10-13T06:17:24.100Z,11.00
2022-10-13T06:19:53.107Z,10.90
2022-10-13T06:22:22.487Z,10.90
2022-10-13T06:24:51.261Z,10.90
2022-10-13T06:27:20.646Z,10.90
2022-10-13T06:30:10.335Z,10.90
2022-10-13T06:32:39.006Z,10.90
2022-10-13T06:35:08.590Z,10.90
2022-10-13T06:37:37.141Z,10.90
2022-10-13T06:40:06.511Z,10.90
2022-10-13T06:42:35.056Z,10.90
2022-10-13T06:45:13.562Z,11.00
2022-10-13T06:47:42.228Z,11.10
2022-10-13T06:50:11.533Z,11.00
2022-10-13T06:52:40.921Z,11.10
2022-10-13T06:55:09.951Z,11.10
2022-10-13T06:57:38.327Z,11.10
2022-10-13T07:00:10.926Z,11.20
2022-10-13T07:02:41.275Z,11.20
2022-10-13T07:05:10.340Z,11.20
2022-10-13T07:07:38.802Z,11.30
2022-10-13T07:10:08.039Z,11.30
2022-10-13T07:12:36.384Z,11.30
2022-10-13T07:15:05.018Z,11.30
2022-10-13T07:17:33.730Z,11.30
2022-10-13T07:20:07.181Z,11.30
2022-10-13T07:22:36.102Z,11.30
2022-10-13T07:25:05.094Z,11.30
2022-10-13T07:27:33.894Z,11.30
2022-10-13T07:30:02.676Z,11.40
2022-10-13T07:32:32.464Z,11.40
2022-10-13T07:35:05.405Z,11.40
2022-10-13T07:37:36.591Z,11.30
2022-10-13T07:40:06.898Z,11.20
2022-10-13T07:42:35.798Z,11.00
2022-10-13T07:45:08.736Z,10.90
2022-10-13T07:47:37.407Z,10.90
2022-10-13T07:50:13.050Z,10.90
2022-10-13T07:52:41.704Z,10.90
2022-10-13T07:55:14.083Z,10.90
2022-10-13T07:57:42.698Z,10.80
2022-10-13T08:00:12.862Z,10.70
2022-10-13T08:02:41.637Z,10.80
2022-10-13T08:05:11.521Z,10.80
2022-10-13T08:07:40.427Z,11.00
2022-10-13T08:10:13.292Z,11.10
2022-10-13T08:12:42.054Z,11.20
2022-10-13T08:15:12.357Z,11.30
2022-10-13T08:17:41.394Z,11.40
2022-10-13T08:20:12.173Z,11.30
2022-10-13T08:22:40.806Z,11.30
2022-10-13T08:25:10.729Z,11.20
2022-10-13T08:27:50.804Z,11.20
2022-10-13T08:30:20.903Z,11.20
2022-10-13T08:32:50.171Z,11.40
2022-10-13T08:35:20.261Z,11.40
2022-10-13T08:37:48.866Z,11.30
2022-10-13T08:40:23.274Z,11.30
2022-10-13T08:42:58.001Z,11.40
2022-10-13T08:45:46.945Z,11.50
2022-10-13T08:48:19.525Z,11.50
2022-10-13T08:50:52.551Z,11.50
2022-10-13T08:53:28.222Z,11.60
2022-10-13T08:55:59.332Z,11.70
2022-10-13T08:58:31.320Z,11.70
2022-10-13T09:01:11.591Z,11.70
2022-10-13T09:03:50.459Z,11.80
2022-10-13T09:06:28.350Z,11.80
2022-10-13T09:08:59.745Z,11.90
2022-10-13T09:11:29.442Z,12.00
2022-10-13T09:14:00.176Z,12.10
2022-10-13T09:16:31.108Z,12.30
2022-10-13T09:19:18.721Z,12.30
2022-10-13T09:21:48.515Z,12.30
2022-10-13T09:24:18.390Z,12.20
2022-10-13T09:26:48.592Z,12.10
2022-10-13T09:29:20.198Z,12.20
2022-10-13T09:31:49.088Z,12.20
2022-10-13T09:34:25.167Z,12.30
2022-10-13T09:37:03.932Z,12.20
2022-10-13T09:39:33.396Z,12.10
2022-10-13T09:42:22.301Z,12.10
2022-10-13T09:45:01.836Z,12.20
2022-10-13T09:47:33.289Z,12.20
2022-10-13T09:50:15.804Z,12.30
2022-10-13T09:52:47.158Z,12.30
2022-10-13T09:55:34.306Z,12.30
2022-10-13T09:58:07.752Z,12.40
2022-10-13T10:00:38.666Z,12.50
2022-10-13T10:03:12.522Z,12.50
2022-10-13T10:05:48.542Z,12.50
2022-10-13T10:08:33.547Z,12.50
2022-10-13T10:11:13.297Z,12.60
2022-10-13T10:13:42.085Z,12.60
2022-10-13T10:16:15.726Z,12.50
2022-10-13T10:18:49.396Z,12.50
2022-10-13T10:21:27.188Z,12.40
2022-10-13T10:24:05.044Z,12.40
2022-10-13T10:26:46.293Z,12.30
2022-10-13T10:29:27.346Z,12.20
2022-10-13T10:32:10.899Z,12.10
2022-10-13T10:34:47.362Z,12.10
2022-10-13T10:37:25.207Z,12.10
2022-10-13T10:40:07.982Z,12.10
2022-10-13T10:42:55.648Z,12.20
2022-10-13T10:45:27.836Z,12.30
2022-10-13T10:48:00.784Z,12.30
2022-10-13T10:50:33.321Z,12.40
2022-10-13T10:53:07.318Z,12.50
2022-10-13T10:55:48.229Z,12.60
2022-10-13T10:58:27.411Z,12.70
2022-10-13T11:01:06.750Z,12.70
2022-10-13T11:03:49.662Z,12.80
2022-10-13T11:06:26.189Z,12.90
2022-10-13T11:08:55.694Z,13.00
2022-10-13T11:11:42.575Z,13.00
2022-10-13T11:14:31.929Z,13.20
2022-10-13T11:17:11.457Z,13.20
2022-10-13T11:19:40.889Z,13.30
2022-10-13T11:22:24.648Z,13.50
2022-10-13T11:24:56.669Z,13.60
2022-10-13T11:27:40.312Z,13.70
2022-10-13T11:30:44.421Z,13.80
2022-10-13T11:33:53.061Z,13.80
2022-10-13T11:36:56.077Z,13.90
2022-10-13T11:40:01.725Z,13.90
2022-10-13T11:43:14.947Z,13.90
2022-10-13T11:46:14.326Z,13.90
2022-10-13T11:49:05.085Z,14.00
2022-10-13T11:51:53.061Z,14.00
2022-10-13T11:54:31.577Z,14.10
2022-10-13T11:57:00.241Z,14.20
2022-10-13T11:59:31.148Z,14.30
2022-10-13T12:02:12.484Z,14.30
2022-10-13T12:04:46.562Z,14.30
2022-10-13T12:07:16.946Z,14.30
2022-10-13T12:09:52.915Z,14.30
2022-10-13T12:12:24.775Z,14.40
2022-10-13T12:15:04.259Z,14.50
2022-10-13T12:17:40.295Z,14.60
2022-10-13T12:20:22.760Z,14.70
2022-10-13T12:22:51.867Z,14.80
2022-10-13T12:25:21.764Z,14.60
2022-10-13T12:27:56.398Z,14.50
2022-10-13T12:30:27.043Z,14.40
2022-10-13T12:32:58.903Z,14.40
2022-10-13T12:35:29.266Z,14.50
2022-10-13T12:37:58.621Z,14.50
2022-10-13T12:40:27.906Z,14.40
2022-10-13T12:42:56.650Z,14.40
2022-10-13T12:45:28.676Z,14.50
2022-10-13T12:47:58.600Z,14.50
2022-10-13T12:50:44.756Z,14.50
2022-10-13T12:53:19.824Z,14.50
2022-10-13T12:55:55.226Z,14.40
2022-10-13T12:58:27.895Z,14.40
2022-10-13T13:01:05.957Z,14.50
2022-10-13T13:03:38.769Z,14.60
2022-10-13T13:06:26.936Z,14.60
2022-10-13T13:09:22.786Z,14.50
2022-10-13T13:12:21.843Z,14.50
2022-10-13T13:14:53.571Z,14.50
2022-10-13T13:17:53.285Z,14.50
2022-10-13T13:20:23.712Z,14.50
2022-10-13T13:22:52.039Z,14.50
2022-10-13T13:25:20.638Z,14.50
2022-10-13T13:27:50.055Z,14.50
2022-10-13T13:30:21.092Z,14.50
2022-10-13T13:32:50.252Z,14.60
2022-10-13T13:35:18.699Z,14.60
2022-10-13T13:37:50.824Z,14.60
2022-10-13T13:40:23.447Z,14.70
2022-10-13T13:42:51.988Z,14.70
2022-10-13T13:45:22.297Z,14.80
2022-10-13T13:47:51.370Z,14.90
2022-10-13T13:50:24.067Z,14.90
2022-10-13T13:53:00.289Z,14.90
2022-10-13T13:55:30.115Z,15.00
2022-10-13T13:57:59.059Z,15.00
2022-10-13T14:00:27.994Z,15.00
2022-10-13T14:02:57.072Z,15.00
2022-10-13T14:05:28.592Z,15.00
2022-10-13T14:07:58.013Z,15.00
2022-10-13T14:10:30.436Z,15.00
2022-10-13T14:12:58.901Z,15.00
2022-10-13T14:15:29.899Z,15.00
2022-10-13T14:17:58.741Z,15.00
2022-10-13T14:20:27.255Z,15.00
2022-10-13T14:22:55.672Z,15.00
2022-10-13T14:25:24.276Z,15.00
2022-10-13T14:27:54.001Z,15.00
2022-10-13T14:30:22.568Z,15.00
2022-10-13T14:32:50.946Z,15.00
2022-10-13T14:35:19.797Z,15.00
2022-10-13T14:37:48.326Z,14.90
2022-10-13T14:40:17.060Z,14.80
2022-10-13T14:42:58.944Z,14.80
2022-10-13T14:45:30.743Z,14.90
2022-10-13T14:47:59.569Z,14.90
2022-10-13T14:50:28.429Z,14.80
2022-10-13T14:52:57.042Z,14.80
2022-10-13T14:55:32.989Z,15.00
2022-10-13T14:58:10.690Z,15.10
2022-10-13T15:00:41.204Z,15.10
2022-10-13T15:03:11.381Z,15.00
2022-10-13T15:05:40.285Z,15.00
2022-10-13T15:08:18.598Z,14.90
2022-10-13T15:10:50.838Z,14.90
2022-10-13T15:13:21.604Z,14.90
2022-10-13T15:15:51.148Z,14.90
2022-10-13T15:18:19.772Z,14.90
2022-10-13T15:20:49.246Z,14.90
2022-10-13T15:23:18.650Z,14.90
2022-10-13T15:25:52.218Z,14.80
2022-10-13T15:28:24.929Z,14.80
2022-10-13T15:30:53.755Z,14.80
2022-10-13T15:33:23.627Z,14.90
2022-10-13T15:35:53.049Z,14.90
2022-10-13T15:38:22.785Z,14.80
2022-10-13T15:40:52.101Z,14.80
2022-10-13T15:43:23.344Z,14.80
2022-10-13T15:46:00.396Z,14.80
2022-10-13T15:48:29.392Z,14.80
2022-10-13T15:50:58.169Z,14.80
2022-10-13T15:53:27.049Z,14.70
2022-10-13T15:55:55.919Z,14.70
2022-10-13T15:58:24.763Z,14.80
2022-10-13T16:01:08.537Z,14.80
2022-10-13T16:03:39.136Z,14.80
2022-10-13T16:06:10.559Z,14.70
2022-10-13T16:08:45.815Z,14.60
2022-10-13T16:11:17.064Z,14.60
2022-10-13T16:13:47.769Z,14.60
2022-10-13T16:16:18.081Z,14.60
2022-10-13T16:18:47.212Z,14.50
2022-10-13T16:21:19.032Z,14.50
2022-10-13T16:23:53.598Z,14.40
2022-10-13T16:26:26.404Z,14.40
2022-10-13T16:28:56.025Z,14.40
2022-10-13T16:31:26.593Z,14.30
2022-10-13T16:33:56.137Z,14.30
2022-10-13T16:36:25.423Z,14.20
2022-10-13T16:38:56.888Z,14.20
2022-10-13T16:41:25.978Z,14.10
2022-10-13T16:43:54.545Z,14.10
2022-10-13T16:46:23.211Z,14.10
2022-10-13T16:48:52.838Z,14.00
2022-10-13T16:51:23.082Z,14.00
2022-10-13T16:54:03.578Z,14.00
2022-10-13T16:56:34.687Z,13.90
2022-10-13T16:59:05.502Z,13.90
2022-10-13T17:01:35.297Z,14.00
2022-10-13T17:04:05.842Z,13.90
2022-10-13T17:06:39.894Z,13.90
2022-10-13T17:09:08.479Z,13.90
2022-10-13T17:11:37.608Z,13.90
2022-10-13T17:14:07.012Z,13.90
2022-10-13T17:16:36.029Z,13.90
2022-10-13T17:19:06.787Z,13.90
2022-10-13T17:21:37.628Z,13.90
2022-10-13T17:24:08.983Z,13.90
2022-10-13T17:26:42.213Z,13.90
2022-10-13T17:29:10.723Z,13.90
2022-10-13T17:31:51.494Z,13.80
2022-10-13T17:34:24.857Z,13.80
2022-10-13T17:36:53.566Z,13.80
2022-10-13T17:39:22.040Z,13.80
2022-10-13T17:41:53.314Z,13.90
2022-10-13T17:44:27.581Z,13.80
2022-10-13T17:46:56.267Z,13.80
2022-10-13T17:49:29.043Z,13.80
2022-10-13T17:52:00.032Z,13.80
2022-10-13T17:54:28.398Z,13.80
2022-10-13T17:56:57.933Z,13.90
2022-10-13T17:59:26.662Z,13.90
2022-10-13T18:01:59.148Z,13.90
2022-10-13T18:04:29.941Z,13.90
2022-10-13T18:06:58.313Z,13.90
2022-10-13T18:09:27.670Z,13.90
2022-10-13T18:11:56.290Z,13.90
2022-10-13T18:14:26.072Z,13.90
2022-10-13T18:16:55.274Z,13.90
2022-10-13T18:19:24.667Z,13.90
2022-10-13T18:21:56.353Z,14.00
2022-10-13T18:24:25.635Z,14.00
2022-10-13T18:26:56.115Z,14.00
2022-10-13T18:29:27.541Z,14.00
2022-10-13T18:31:57.328Z,14.00
2022-10-13T18:34:26.638Z,14.00
2022-10-13T18:37:01.724Z,13.90
2022-10-13T18:39:35.172Z,14.00
2022-10-13T18:42:06.848Z,14.00
2022-10-13T18:44:38.236Z,14.00
2022-10-13T18:47:07.374Z,14.00
2022-10-13T18:49:35.804Z,14.00
2022-10-13T18:52:06.661Z,14.00
2022-10-13T18:54:39.466Z,14.00
2022-10-13T18:57:08.302Z,14.00
2022-10-13T18:59:38.742Z,14.00
2022-10-13T19:02:08.140Z,14.00
2022-10-13T19:04:37.192Z,14.00
2022-10-13T19:07:07.152Z,14.00
2022-10-13T19:09:35.901Z,14.10
2022-10-13T19:12:04.479Z,14.00
2022-10-13T19:14:34.127Z,14.10
2022-10-13T19:17:02.680Z,14.10
2022-10-13T19:19:32.201Z,14.10
2022-10-13T19:22:02.264Z,14.10
2022-10-13T19:24:32.578Z,14.00
2022-10-13T19:27:01.420Z,14.00
2022-10-13T19:29:30.674Z,14.00
2022-10-13T19:31:59.333Z,13.80
2022-10-13T19:34:29.343Z,13.70
2022-10-13T19:37:00.113Z,13.70
2022-10-13T19:39:28.975Z,13.60
2022-10-13T19:41:59.226Z,13.50
2022-10-13T19:44:30.071Z,13.50
2022-10-13T19:47:03.099Z,13.50
2022-10-13T19:49:34.974Z,13.40
2022-10-13T19:52:03.570Z,13.50
2022-10-13T19:54:51.248Z,13.50
2022-10-13T19:57:24.236Z,13.40
2022-10-13T19:59:52.698Z,13.40
2022-10-13T20:02:21.082Z,13.40
2022-10-13T20:04:49.333Z,13.40
2022-10-13T20:07:18.112Z,13.40
2022-10-13T20:09:46.794Z,13.40
2022-10-13T20:12:15.537Z,13.40
2022-10-13T20:14:49.687Z,13.40
2022-10-13T20:17:20.604Z,13.40
2022-10-13T20:19:49.357Z,13.30
2022-10-13T20:22:17.700Z,13.30
2022-10-13T20:24:46.496Z,13.30
2022-10-13T20:27:14.958Z,13.30
2022-10-13T20:29:44.636Z,13.40
2022-10-13T20:32:18.585Z,13.40
2022-10-13T20:34:47.878Z,13.40
2022-10-13T20:37:16.980Z,13.40
2022-10-13T20:40:06.565Z,13.40
2022-10-13T20:42:36.068Z,13.30
2022-10-13T20:45:09.035Z,13.30
2022-10-13T20:47:39.471Z,13.30
2022-10-13T20:50:09.593Z,13.40
2022-10-13T20:52:39.554Z,13.40
2022-10-13T20:55:11.712Z,13.50
2022-10-13T20:57:41.569Z,13.50
2022-10-13T21:00:11.585Z,13.40
2022-10-13T21:02:41.854Z,13.40
2022-10-13T21:05:11.162Z,13.40
2022-10-13T21:07:44.189Z,13.40
2022-10-13T21:10:13.204Z,13.40
2022-10-13T21:12:42.026Z,13.40
2022-10-13T21:15:16.423Z,13.40
2022-10-13T21:17:55.286Z,13.40
2022-10-13T21:20:34.284Z,13.40
2022-10-13T21:23:07.912Z,13.40
2022-10-13T21:25:42.711Z,13.40
2022-10-13T21:28:12.573Z,13.40
2022-10-13T21:30:42.011Z,13.40
2022-10-13T21:33:12.195Z,13.40
2022-10-13T21:35:43.055Z,13.40
2022-10-13T21:38:12.182Z,13.40
2022-10-13T21:40:42.924Z,13.40
2022-10-13T21:43:14.755Z,13.50
2022-10-13T21:45:43.802Z,13.50
2022-10-13T21:48:13.696Z,13.40
2022-10-13T21:50:42.998Z,13.50
2022-10-13T21:53:11.715Z,13.50
2022-10-13T21:55:43.350Z,13.50
2022-10-13T21:58:11.846Z,13.50
2022-10-13T22:00:40.867Z,13.60
2022-10-13T22:03:41.956Z,13.60
2022-10-13T22:06:18.456Z,13.60
2022-10-13T22:08:50.030Z,13.60
2022-10-13T22:11:23.846Z,13.60
2022-10-13T22:13:52.611Z,13.60
2022-10-13T22:16:23.292Z,13.60
2022-10-13T22:18:55.076Z,13.60
2022-10-13T22:21:25.793Z,13.60
2022-10-13T22:23:57.810Z,13.70
2022-10-13T22:26:26.897Z,13.70
2022-10-13T22:28:55.659Z,13.70
2022-10-13T22:31:24.160Z,13.70
2022-10-13T22:33:54.543Z,13.70
2022-10-13T22:36:24.800Z,13.70
2022-10-13T22:38:55.231Z,13.80
2022-10-13T22:41:24.052Z,13.80
2022-10-13T22:43:54.530Z,13.80
2022-10-13T22:46:25.072Z,13.90
2022-10-13T22:48:56.186Z,13.80
2022-10-13T22:51:26.289Z,13.80
2022-10-13T22:53:55.008Z,13.80
2022-10-13T22:56:25.816Z,13.80
2022-10-13T22:58:55.917Z,13.90
2022-10-13T23:01:26.053Z,13.80
2022-10-13T23:03:58.555Z,13.80
2022-10-13T23:06:28.954Z,13.80
2022-10-13T23:09:01.508Z,13.80
2022-10-13T23:11:30.457Z,13.80
2022-10-13T23:13:59.005Z,13.80
2022-10-13T23:16:28.139Z,13.80
2022-10-13T23:18:57.876Z,13.80
2022-10-13T23:21:28.138Z,13.80
2022-10-13T23:23:57.257Z,13.80
2022-10-13T23:26:25.930Z,13.90
2022-10-13T23:28:54.818Z,13.90
2022-10-13T23:31:23.542Z,13.90
2022-10-13T23:33:52.173Z,13.80
2022-10-13T23:36:24.744Z,13.80
2022-10-13T23:38:58.889Z,13.80
2022-10-13T23:41:27.859Z,13.80
2022-10-13T23:43:56.546Z,13.80
2022-10-13T23:46:24.909Z,13.80
2022-10-13T23:48:53.542Z,13.80
2022-10-13T23:51:25.356Z,13.80
2022-10-13T23:53:53.971Z,13.80
2022-10-13T23:56:22.539Z,13.80
2022-10-13T23:58:50.921Z,13.80
